sensor_id;sensor_type;location;lat;lon;timestamp;P1;durP1;ratioP1;P2;durP2;ratioP2
21148;SDS011;10732;51.472;6.466;2023-08-08T00:00:09;5.32;;;3.40;;
21148;SDS011;10732;51.472;6.466;2023-08-08T00:02:36;7.95;;;3.40;;
21148;SDS011;10732;51.472;6.466;2023-08-08T00:05:01;7.95;;;3.50;;
21148;SDS011;10732;51.472;6.466;2023-08-08T00:07:27;6.93;;;2.97;;
21148;SDS011;10732;51.472;6.466;2023-08-08T00:09:55;4.22;;;3.30;;
21148;SDS011;10732;51.472;6.466;2023-08-08T00:12:21;6.45;;;3.53;;
21148;SDS011;10732;51.472;6.466;2023-08-08T00:14:47;4.88;;;3.30;;
21148;SDS011;10732;51.472;6.466;2023-08-08T00:17:13;3.78;;;3.25;;
21148;SDS011;10732;51.472;6.466;2023-08-08T00:19:38;5.00;;;3.55;;
21148;SDS011;10732;51.472;6.466;2023-08-08T00:22:04;8.15;;;3.50;;
21148;SDS011;10732;51.472;6.466;2023-08-08T00:24:29;7.07;;;3.63;;
21148;SDS011;10732;51.472;6.466;2023-08-08T00:26:55;4.78;;;3.40;;
21148;SDS011;10732;51.472;6.466;2023-08-08T00:29:20;4.97;;;3.50;;
21148;SDS011;10732;51.472;6.466;2023-08-08T00:31:46;5.78;;;3.33;;
21148;SDS011;10732;51.472;6.466;2023-08-08T00:34:11;8.73;;;3.50;;
21148;SDS011;10732;51.472;6.466;2023-08-08T00:36:37;4.78;;;3.28;;
21148;SDS011;10732;51.472;6.466;2023-08-08T00:39:02;4.35;;;3.42;;
21148;SDS011;10732;51.472;6.466;2023-08-08T00:41:28;5.28;;;3.45;;
21148;SDS011;10732;51.472;6.466;2023-08-08T00:43:53;6.03;;;3.58;;
21148;SDS011;10732;51.472;6.466;2023-08-08T00:46:20;5.72;;;3.53;;
21148;SDS011;10732;51.472;6.466;2023-08-08T00:48:49;5.82;;;3.42;;
21148;SDS011;10732;51.472;6.466;2023-08-08T00:51:18;6.20;;;3.30;;
21148;SDS011;10732;51.472;6.466;2023-08-08T00:53:45;6.63;;;3.15;;
21148;SDS011;10732;51.472;6.466;2023-08-08T00:56:13;5.50;;;2.97;;
21148;SDS011;10732;51.472;6.466;2023-08-08T00:58:39;7.30;;;3.53;;
21148;SDS011;10732;51.472;6.466;2023-08-08T01:01:05;5.22;;;3.15;;
21148;SDS011;10732;51.472;6.466;2023-08-08T01:03:31;5.05;;;3.40;;
21148;SDS011;10732;51.472;6.466;2023-08-08T01:06:02;3.75;;;2.90;;
21148;SDS011;10732;51.472;6.466;2023-08-08T01:08:39;4.28;;;3.13;;
21148;SDS011;10732;51.472;6.466;2023-08-08T01:11:10;4.70;;;3.50;;
21148;SDS011;10732;51.472;6.466;2023-08-08T01:13:38;5.18;;;3.28;;
21148;SDS011;10732;51.472;6.466;2023-08-08T01:16:05;5.00;;;3.50;;
21148;SDS011;10732;51.472;6.466;2023-08-08T01:18:31;7.65;;;3.75;;
21148;SDS011;10732;51.472;6.466;2023-08-08T01:20:57;5.47;;;3.70;;
21148;SDS011;10732;51.472;6.466;2023-08-08T01:23:30;7.53;;;3.60;;
21148;SDS011;10732;51.472;6.466;2023-08-08T01:26:04;8.73;;;3.63;;
21148;SDS011;10732;51.472;6.466;2023-08-08T01:28:30;5.93;;;3.60;;
21148;SDS011;10732;51.472;6.466;2023-08-08T01:30:56;5.20;;;3.45;;
21148;SDS011;10732;51.472;6.466;2023-08-08T01:33:21;6.70;;;3.28;;
21148;SDS011;10732;51.472;6.466;2023-08-08T01:35:50;6.13;;;3.42;;
21148;SDS011;10732;51.472;6.466;2023-08-08T01:38:23;9.52;;;3.47;;
21148;SDS011;10732;51.472;6.466;2023-08-08T01:40:58;5.93;;;3.28;;
21148;SDS011;10732;51.472;6.466;2023-08-08T01:43:25;6.60;;;3.35;;
21148;SDS011;10732;51.472;6.466;2023-08-08T01:45:52;6.00;;;2.92;;
21148;SDS011;10732;51.472;6.466;2023-08-08T01:48:18;8.30;;;3.63;;
21148;SDS011;10732;51.472;6.466;2023-08-08T01:50:44;5.15;;;3.08;;
21148;SDS011;10732;51.472;6.466;2023-08-08T01:53:09;7.10;;;3.42;;
21148;SDS011;10732;51.472;6.466;2023-08-08T01:55:35;5.78;;;3.30;;
21148;SDS011;10732;51.472;6.466;2023-08-08T01:58:00;7.93;;;3.38;;
21148;SDS011;10732;51.472;6.466;2023-08-08T02:00:26;5.97;;;3.25;;
21148;SDS011;10732;51.472;6.466;2023-08-08T02:02:52;5.90;;;3.47;;
21148;SDS011;10732;51.472;6.466;2023-08-08T02:05:17;6.13;;;3.40;;
21148;SDS011;10732;51.472;6.466;2023-08-08T02:07:43;6.15;;;3.25;;
21148;SDS011;10732;51.472;6.466;2023-08-08T02:10:09;6.90;;;3.40;;
21148;SDS011;10732;51.472;6.466;2023-08-08T02:12:34;4.32;;;3.00;;
21148;SDS011;10732;51.472;6.466;2023-08-08T02:15:00;8.10;;;3.22;;
21148;SDS011;10732;51.472;6.466;2023-08-08T02:17:25;6.05;;;2.95;;
21148;SDS011;10732;51.472;6.466;2023-08-08T02:19:52;5.85;;;3.60;;
21148;SDS011;10732;51.472;6.466;2023-08-08T02:22:18;5.75;;;3.25;;
21148;SDS011;10732;51.472;6.466;2023-08-08T02:24:43;6.93;;;3.30;;
21148;SDS011;10732;51.472;6.466;2023-08-08T02:27:09;5.78;;;3.25;;
21148;SDS011;10732;51.472;6.466;2023-08-08T02:29:36;7.03;;;3.28;;
21148;SDS011;10732;51.472;6.466;2023-08-08T02:32:02;7.20;;;3.30;;
21148;SDS011;10732;51.472;6.466;2023-08-08T02:34:28;6.97;;;3.47;;
21148;SDS011;10732;51.472;6.466;2023-08-08T02:36:53;9.35;;;3.30;;
21148;SDS011;10732;51.472;6.466;2023-08-08T02:39:19;4.85;;;3.58;;
21148;SDS011;10732;51.472;6.466;2023-08-08T02:41:44;8.15;;;3.70;;
21148;SDS011;10732;51.472;6.466;2023-08-08T02:44:10;9.05;;;3.90;;
21148;SDS011;10732;51.472;6.466;2023-08-08T02:46:36;7.18;;;4.03;;
21148;SDS011;10732;51.472;6.466;2023-08-08T02:49:03;8.52;;;4.10;;
21148;SDS011;10732;51.472;6.466;2023-08-08T02:51:29;7.68;;;3.90;;
21148;SDS011;10732;51.472;6.466;2023-08-08T02:53:54;6.72;;;4.07;;
21148;SDS011;10732;51.472;6.466;2023-08-08T02:56:20;7.13;;;3.80;;
21148;SDS011;10732;51.472;6.466;2023-08-08T02:58:46;8.38;;;4.40;;
21148;SDS011;10732;51.472;6.466;2023-08-08T03:01:11;7.95;;;4.13;;
21148;SDS011;10732;51.472;6.466;2023-08-08T03:03:40;8.55;;;4.22;;
21148;SDS011;10732;51.472;6.466;2023-08-08T03:06:06;7.15;;;4.13;;
21148;SDS011;10732;51.472;6.466;2023-08-08T03:08:32;9.20;;;4.53;;
21148;SDS011;10732;51.472;6.466;2023-08-08T03:10:58;9.63;;;4.82;;
21148;SDS011;10732;51.472;6.466;2023-08-08T03:13:23;7.00;;;4.47;;
21148;SDS011;10732;51.472;6.466;2023-08-08T03:15:49;6.93;;;4.10;;
21148;SDS011;10732;51.472;6.466;2023-08-08T03:18:14;10.15;;;4.35;;
21148;SDS011;10732;51.472;6.466;2023-08-08T03:20:40;8.18;;;4.38;;
21148;SDS011;10732;51.472;6.466;2023-08-08T03:23:05;10.98;;;4.60;;
21148;SDS011;10732;51.472;6.466;2023-08-08T03:25:31;7.70;;;4.53;;
21148;SDS011;10732;51.472;6.466;2023-08-08T03:27:56;8.45;;;4.53;;
21148;SDS011;10732;51.472;6.466;2023-08-08T03:30:22;8.02;;;4.40;;
21148;SDS011;10732;51.472;6.466;2023-08-08T03:32:48;12.05;;;5.03;;
21148;SDS011;10732;51.472;6.466;2023-08-08T03:35:13;10.73;;;4.90;;
21148;SDS011;10732;51.472;6.466;2023-08-08T03:37:40;11.57;;;5.03;;
21148;SDS011;10732;51.472;6.466;2023-08-08T03:40:07;10.63;;;5.03;;
21148;SDS011;10732;51.472;6.466;2023-08-08T03:42:33;10.82;;;4.88;;
21148;SDS011;10732;51.472;6.466;2023-08-08T03:44:59;9.98;;;4.38;;
21148;SDS011;10732;51.472;6.466;2023-08-08T03:47:24;9.15;;;4.47;;
21148;SDS011;10732;51.472;6.466;2023-08-08T03:49:50;10.02;;;4.85;;
21148;SDS011;10732;51.472;6.466;2023-08-08T03:52:16;7.95;;;4.78;;
21148;SDS011;10732;51.472;6.466;2023-08-08T03:54:42;11.05;;;4.53;;
21148;SDS011;10732;51.472;6.466;2023-08-08T03:57:08;10.77;;;4.80;;
21148;SDS011;10732;51.472;6.466;2023-08-08T03:59:33;7.70;;;5.10;;
21148;SDS011;10732;51.472;6.466;2023-08-08T04:01:59;9.70;;;4.88;;
21148;SDS011;10732;51.472;6.466;2023-08-08T04:04:24;9.75;;;4.80;;
21148;SDS011;10732;51.472;6.466;2023-08-08T04:06:50;9.70;;;4.88;;
21148;SDS011;10732;51.472;6.466;2023-08-08T04:09:15;11.40;;;4.78;;
21148;SDS011;10732;51.472;6.466;2023-08-08T04:11:41;13.82;;;5.53;;
21148;SDS011;10732;51.472;6.466;2023-08-08T04:14:06;10.15;;;4.78;;
21148;SDS011;10732;51.472;6.466;2023-08-08T04:16:32;13.10;;;5.60;;
21148;SDS011;10732;51.472;6.466;2023-08-08T04:18:58;13.18;;;6.05;;
21148;SDS011;10732;51.472;6.466;2023-08-08T04:21:24;10.07;;;5.15;;
21148;SDS011;10732;51.472;6.466;2023-08-08T04:23:52;12.38;;;4.97;;
21148;SDS011;10732;51.472;6.466;2023-08-08T04:26:17;13.20;;;5.45;;
21148;SDS011;10732;51.472;6.466;2023-08-08T04:28:43;9.88;;;5.65;;
21148;SDS011;10732;51.472;6.466;2023-08-08T04:31:08;15.32;;;5.75;;
21148;SDS011;10732;51.472;6.466;2023-08-08T04:33:34;14.70;;;5.32;;
21148;SDS011;10732;51.472;6.466;2023-08-08T04:35:59;14.38;;;5.50;;
21148;SDS011;10732;51.472;6.466;2023-08-08T04:38:25;12.38;;;5.78;;
21148;SDS011;10732;51.472;6.466;2023-08-08T04:40:51;16.27;;;6.18;;
21148;SDS011;10732;51.472;6.466;2023-08-08T04:43:16;9.88;;;6.10;;
21148;SDS011;10732;51.472;6.466;2023-08-08T04:45:42;12.20;;;5.80;;
21148;SDS011;10732;51.472;6.466;2023-08-08T04:48:07;14.48;;;5.93;;
21148;SDS011;10732;51.472;6.466;2023-08-08T04:50:33;11.00;;;6.03;;
21148;SDS011;10732;51.472;6.466;2023-08-08T04:52:58;16.42;;;6.22;;
21148;SDS011;10732;51.472;6.466;2023-08-08T04:55:24;10.63;;;5.68;;
21148;SDS011;10732;51.472;6.466;2023-08-08T04:57:49;11.63;;;6.03;;
21148;SDS011;10732;51.472;6.466;2023-08-08T05:00:15;16.58;;;6.30;;
21148;SDS011;10732;51.472;6.466;2023-08-08T05:02:41;10.30;;;5.85;;
21148;SDS011;10732;51.472;6.466;2023-08-08T05:05:07;13.43;;;6.20;;
21148;SDS011;10732;51.472;6.466;2023-08-08T05:07:32;13.88;;;6.07;;
21148;SDS011;10732;51.472;6.466;2023-08-08T05:10:01;10.65;;;6.20;;
21148;SDS011;10732;51.472;6.466;2023-08-08T05:12:27;9.10;;;5.50;;
21148;SDS011;10732;51.472;6.466;2023-08-08T05:14:53;11.65;;;5.95;;
21148;SDS011;10732;51.472;6.466;2023-08-08T05:17:18;11.98;;;6.00;;
21148;SDS011;10732;51.472;6.466;2023-08-08T05:19:44;12.68;;;6.05;;
21148;SDS011;10732;51.472;6.466;2023-08-08T05:22:09;11.02;;;6.30;;
21148;SDS011;10732;51.472;6.466;2023-08-08T05:24:35;12.88;;;7.22;;
21148;SDS011;10732;51.472;6.466;2023-08-08T05:27:01;17.90;;;7.50;;
21148;SDS011;10732;51.472;6.466;2023-08-08T05:29:28;15.32;;;7.93;;
21148;SDS011;10732;51.472;6.466;2023-08-08T05:31:53;15.10;;;9.00;;
21148;SDS011;10732;51.472;6.466;2023-08-08T05:34:19;16.60;;;9.45;;
21148;SDS011;10732;51.472;6.466;2023-08-08T05:36:44;19.25;;;10.10;;
21148;SDS011;10732;51.472;6.466;2023-08-08T05:39:10;17.48;;;9.32;;
21148;SDS011;10732;51.472;6.466;2023-08-08T05:41:35;20.10;;;9.48;;
21148;SDS011;10732;51.472;6.466;2023-08-08T05:44:01;16.08;;;9.30;;
21148;SDS011;10732;51.472;6.466;2023-08-08T05:46:27;21.02;;;10.32;;
21148;SDS011;10732;51.472;6.466;2023-08-08T05:48:52;21.35;;;10.63;;
21148;SDS011;10732;51.472;6.466;2023-08-08T05:51:17;18.70;;;10.35;;
21148;SDS011;10732;51.472;6.466;2023-08-08T05:53:43;19.30;;;10.55;;
21148;SDS011;10732;51.472;6.466;2023-08-08T05:56:09;21.25;;;10.10;;
21148;SDS011;10732;51.472;6.466;2023-08-08T05:58:34;15.35;;;9.68;;
21148;SDS011;10732;51.472;6.466;2023-08-08T06:01:02;16.63;;;10.05;;
21148;SDS011;10732;51.472;6.466;2023-08-08T06:03:31;22.65;;;10.23;;
21148;SDS011;10732;51.472;6.466;2023-08-08T06:05:57;15.98;;;10.02;;
21148;SDS011;10732;51.472;6.466;2023-08-08T06:08:22;14.32;;;10.40;;
21148;SDS011;10732;51.472;6.466;2023-08-08T06:10:48;19.98;;;11.02;;
21148;SDS011;10732;51.472;6.466;2023-08-08T06:13:13;18.05;;;10.98;;
21148;SDS011;10732;51.472;6.466;2023-08-08T06:15:39;15.30;;;10.10;;
21148;SDS011;10732;51.472;6.466;2023-08-08T06:18:04;18.05;;;11.00;;
21148;SDS011;10732;51.472;6.466;2023-08-08T06:20:30;15.38;;;9.45;;
21148;SDS011;10732;51.472;6.466;2023-08-08T06:22:56;17.35;;;9.02;;
21148;SDS011;10732;51.472;6.466;2023-08-08T06:25:21;21.42;;;9.48;;
21148;SDS011;10732;51.472;6.466;2023-08-08T06:27:47;18.35;;;9.13;;
21148;SDS011;10732;51.472;6.466;2023-08-08T06:30:12;16.05;;;8.93;;
21148;SDS011;10732;51.472;6.466;2023-08-08T06:32:38;14.45;;;8.60;;
21148;SDS011;10732;51.472;6.466;2023-08-08T06:35:03;17.50;;;8.40;;
21148;SDS011;10732;51.472;6.466;2023-08-08T06:37:29;12.20;;;7.50;;
21148;SDS011;10732;51.472;6.466;2023-08-08T06:39:55;12.80;;;6.55;;
21148;SDS011;10732;51.472;6.466;2023-08-08T06:42:20;10.90;;;5.65;;
21148;SDS011;10732;51.472;6.466;2023-08-08T06:44:46;11.10;;;4.72;;
21148;SDS011;10732;51.472;6.466;2023-08-08T06:47:11;10.07;;;4.70;;
21148;SDS011;10732;51.472;6.466;2023-08-08T06:49:37;10.07;;;4.82;;
21148;SDS011;10732;51.472;6.466;2023-08-08T06:52:04;7.05;;;4.55;;
21148;SDS011;10732;51.472;6.466;2023-08-08T06:54:30;8.77;;;4.50;;
21148;SDS011;10732;51.472;6.466;2023-08-08T06:56:56;7.65;;;4.45;;
21148;SDS011;10732;51.472;6.466;2023-08-08T06:59:22;8.90;;;4.28;;
21148;SDS011;10732;51.472;6.466;2023-08-08T07:01:48;8.85;;;4.68;;
21148;SDS011;10732;51.472;6.466;2023-08-08T07:04:15;11.40;;;4.93;;
21148;SDS011;10732;51.472;6.466;2023-08-08T07:06:42;13.50;;;5.10;;
21148;SDS011;10732;51.472;6.466;2023-08-08T07:09:08;10.75;;;4.57;;
21148;SDS011;10732;51.472;6.466;2023-08-08T07:11:35;12.13;;;4.55;;
21148;SDS011;10732;51.472;6.466;2023-08-08T07:14:01;12.70;;;4.90;;
21148;SDS011;10732;51.472;6.466;2023-08-08T07:16:27;10.32;;;4.38;;
21148;SDS011;10732;51.472;6.466;2023-08-08T07:18:53;11.23;;;4.10;;
21148;SDS011;10732;51.472;6.466;2023-08-08T07:21:18;10.55;;;4.10;;
21148;SDS011;10732;51.472;6.466;2023-08-08T07:23:44;9.00;;;4.15;;
21148;SDS011;10732;51.472;6.466;2023-08-08T07:26:09;11.02;;;4.00;;
21148;SDS011;10732;51.472;6.466;2023-08-08T07:28:35;8.65;;;3.22;;
21148;SDS011;10732;51.472;6.466;2023-08-08T07:31:01;6.97;;;3.15;;
21148;SDS011;10732;51.472;6.466;2023-08-08T07:33:26;8.60;;;3.17;;
21148;SDS011;10732;51.472;6.466;2023-08-08T07:35:52;6.55;;;3.10;;
21148;SDS011;10732;51.472;6.466;2023-08-08T07:38:17;5.57;;;2.58;;
21148;SDS011;10732;51.472;6.466;2023-08-08T07:40:43;6.53;;;2.80;;
21148;SDS011;10732;51.472;6.466;2023-08-08T07:43:08;7.25;;;3.25;;
21148;SDS011;10732;51.472;6.466;2023-08-08T07:45:34;7.47;;;3.35;;
21148;SDS011;10732;51.472;6.466;2023-08-08T07:47:59;9.95;;;3.17;;
21148;SDS011;10732;51.472;6.466;2023-08-08T07:50:25;6.47;;;3.00;;
21148;SDS011;10732;51.472;6.466;2023-08-08T07:52:51;7.95;;;3.50;;
21148;SDS011;10732;51.472;6.466;2023-08-08T07:55:16;9.30;;;3.20;;
21148;SDS011;10732;51.472;6.466;2023-08-08T07:57:42;9.20;;;3.00;;
21148;SDS011;10732;51.472;6.466;2023-08-08T08:00:07;9.68;;;3.28;;
21148;SDS011;10732;51.472;6.466;2023-08-08T08:02:36;6.72;;;3.22;;
21148;SDS011;10732;51.472;6.466;2023-08-08T08:05:02;8.68;;;2.90;;
21148;SDS011;10732;51.472;6.466;2023-08-08T08:07:32;8.70;;;2.97;;
21148;SDS011;10732;51.472;6.466;2023-08-08T08:09:58;7.03;;;2.55;;
21148;SDS011;10732;51.472;6.466;2023-08-08T08:12:24;7.03;;;3.13;;
21148;SDS011;10732;51.472;6.466;2023-08-08T08:14:50;7.38;;;2.75;;
21148;SDS011;10732;51.472;6.466;2023-08-08T08:17:15;8.40;;;2.92;;
21148;SDS011;10732;51.472;6.466;2023-08-08T08:19:41;7.18;;;3.20;;
21148;SDS011;10732;51.472;6.466;2023-08-08T08:22:06;10.18;;;2.85;;
21148;SDS011;10732;51.472;6.466;2023-08-08T08:24:32;10.32;;;2.80;;
21148;SDS011;10732;51.472;6.466;2023-08-08T08:26:57;8.07;;;2.70;;
21148;SDS011;10732;51.472;6.466;2023-08-08T08:29:23;8.32;;;2.97;;
21148;SDS011;10732;51.472;6.466;2023-08-08T08:31:48;6.40;;;3.00;;
21148;SDS011;10732;51.472;6.466;2023-08-08T08:34:14;6.90;;;2.90;;
21148;SDS011;10732;51.472;6.466;2023-08-08T08:36:40;6.07;;;2.67;;
21148;SDS011;10732;51.472;6.466;2023-08-08T08:39:05;8.25;;;3.08;;
21148;SDS011;10732;51.472;6.466;2023-08-08T08:41:31;7.03;;;2.75;;
21148;SDS011;10732;51.472;6.466;2023-08-08T08:44:00;7.38;;;2.72;;
21148;SDS011;10732;51.472;6.466;2023-08-08T08:46:26;6.65;;;2.80;;
21148;SDS011;10732;51.472;6.466;2023-08-08T08:48:54;8.13;;;3.00;;
21148;SDS011;10732;51.472;6.466;2023-08-08T08:51:21;4.85;;;2.45;;
21148;SDS011;10732;51.472;6.466;2023-08-08T08:53:47;6.15;;;2.75;;
21148;SDS011;10732;51.472;6.466;2023-08-08T08:56:16;8.57;;;2.78;;
21148;SDS011;10732;51.472;6.466;2023-08-08T08:58:42;6.95;;;2.65;;
21148;SDS011;10732;51.472;6.466;2023-08-08T09:01:08;7.28;;;2.53;;
21148;SDS011;10732;51.472;6.466;2023-08-08T09:03:34;9.02;;;2.83;;
21148;SDS011;10732;51.472;6.466;2023-08-08T09:06:01;9.05;;;3.03;;
21148;SDS011;10732;51.472;6.466;2023-08-08T09:08:27;8.30;;;3.03;;
21148;SDS011;10732;51.472;6.466;2023-08-08T09:10:54;3.97;;;2.40;;
21148;SDS011;10732;51.472;6.466;2023-08-08T09:13:21;8.63;;;2.45;;
21148;SDS011;10732;51.472;6.466;2023-08-08T09:15:47;8.38;;;2.70;;
21148;SDS011;10732;51.472;6.466;2023-08-08T09:18:14;8.70;;;2.70;;
21148;SDS011;10732;51.472;6.466;2023-08-08T09:20:39;8.98;;;2.85;;
21148;SDS011;10732;51.472;6.466;2023-08-08T09:23:05;5.43;;;2.60;;
21148;SDS011;10732;51.472;6.466;2023-08-08T09:25:31;8.70;;;2.60;;
21148;SDS011;10732;51.472;6.466;2023-08-08T09:27:56;8.38;;;2.72;;
21148;SDS011;10732;51.472;6.466;2023-08-08T09:30:22;5.20;;;2.22;;
21148;SDS011;10732;51.472;6.466;2023-08-08T09:32:48;6.00;;;2.70;;
21148;SDS011;10732;51.472;6.466;2023-08-08T09:35:14;6.30;;;2.78;;
21148;SDS011;10732;51.472;6.466;2023-08-08T09:37:40;5.50;;;2.45;;
21148;SDS011;10732;51.472;6.466;2023-08-08T09:40:05;5.40;;;2.53;;
21148;SDS011;10732;51.472;6.466;2023-08-08T09:42:33;6.22;;;2.55;;
21148;SDS011;10732;51.472;6.466;2023-08-08T09:44:59;5.80;;;2.40;;
21148;SDS011;10732;51.472;6.466;2023-08-08T09:47:25;8.77;;;2.85;;
21148;SDS011;10732;51.472;6.466;2023-08-08T09:49:55;5.55;;;2.60;;
21148;SDS011;10732;51.472;6.466;2023-08-08T09:52:27;5.30;;;2.63;;
21148;SDS011;10732;51.472;6.466;2023-08-08T09:54:53;8.68;;;2.78;;
21148;SDS011;10732;51.472;6.466;2023-08-08T09:57:20;4.95;;;2.40;;
21148;SDS011;10732;51.472;6.466;2023-08-08T09:59:47;8.73;;;2.60;;
21148;SDS011;10732;51.472;6.466;2023-08-08T10:02:14;7.65;;;2.60;;
21148;SDS011;10732;51.472;6.466;2023-08-08T10:04:45;4.65;;;2.08;;
21148;SDS011;10732;51.472;6.466;2023-08-08T10:07:11;5.65;;;2.10;;
21148;SDS011;10732;51.472;6.466;2023-08-08T10:09:36;5.20;;;1.98;;
21148;SDS011;10732;51.472;6.466;2023-08-08T10:12:03;4.05;;;2.00;;
21148;SDS011;10732;51.472;6.466;2023-08-08T10:14:31;4.00;;;1.92;;
21148;SDS011;10732;51.472;6.466;2023-08-08T10:16:57;5.53;;;2.50;;
21148;SDS011;10732;51.472;6.466;2023-08-08T10:19:23;5.00;;;2.40;;
21148;SDS011;10732;51.472;6.466;2023-08-08T10:21:55;9.20;;;2.65;;
21148;SDS011;10732;51.472;6.466;2023-08-08T10:24:23;5.55;;;2.00;;
21148;SDS011;10732;51.472;6.466;2023-08-08T10:26:58;4.78;;;2.20;;
21148;SDS011;10732;51.472;6.466;2023-08-08T10:29:27;7.03;;;2.05;;
21148;SDS011;10732;51.472;6.466;2023-08-08T10:32:01;5.25;;;2.00;;
21148;SDS011;10732;51.472;6.466;2023-08-08T10:34:42;6.25;;;1.98;;
21148;SDS011;10732;51.472;6.466;2023-08-08T10:37:09;5.80;;;2.13;;
21148;SDS011;10732;51.472;6.466;2023-08-08T10:39:50;4.28;;;1.98;;
21148;SDS011;10732;51.472;6.466;2023-08-08T10:42:17;6.63;;;2.50;;
21148;SDS011;10732;51.472;6.466;2023-08-08T10:44:50;7.90;;;2.10;;
21148;SDS011;10732;51.472;6.466;2023-08-08T10:47:20;7.65;;;2.38;;
21148;SDS011;10732;51.472;6.466;2023-08-08T10:52:32;9.32;;;2.45;;
21148;SDS011;10732;51.472;6.466;2023-08-08T10:55:02;5.63;;;2.33;;
21148;SDS011;10732;51.472;6.466;2023-08-08T10:57:28;7.90;;;2.13;;
21148;SDS011;10732;51.472;6.466;2023-08-08T10:59:55;4.70;;;2.15;;
21148;SDS011;10732;51.472;6.466;2023-08-08T11:02:41;3.33;;;1.95;;
21148;SDS011;10732;51.472;6.466;2023-08-08T11:05:07;3.83;;;2.10;;
21148;SDS011;10732;51.472;6.466;2023-08-08T11:07:34;3.65;;;2.00;;
21148;SDS011;10732;51.472;6.466;2023-08-08T11:10:02;5.35;;;2.08;;
21148;SDS011;10732;51.472;6.466;2023-08-08T11:12:28;5.28;;;2.08;;
21148;SDS011;10732;51.472;6.466;2023-08-08T11:14:54;4.93;;;2.35;;
21148;SDS011;10732;51.472;6.466;2023-08-08T11:17:20;3.53;;;1.90;;
21148;SDS011;10732;51.472;6.466;2023-08-08T11:19:45;4.82;;;2.17;;
21148;SDS011;10732;51.472;6.466;2023-08-08T11:22:11;6.32;;;2.10;;
21148;SDS011;10732;51.472;6.466;2023-08-08T11:24:36;5.80;;;2.10;;
21148;SDS011;10732;51.472;6.466;2023-08-08T11:27:02;6.25;;;2.22;;
21148;SDS011;10732;51.472;6.466;2023-08-08T11:29:28;3.13;;;2.08;;
21148;SDS011;10732;51.472;6.466;2023-08-08T11:31:56;6.57;;;2.10;;
21148;SDS011;10732;51.472;6.466;2023-08-08T11:34:24;7.00;;;1.90;;
21148;SDS011;10732;51.472;6.466;2023-08-08T11:36:49;3.83;;;2.15;;
21148;SDS011;10732;51.472;6.466;2023-08-08T11:39:15;5.75;;;2.50;;
21148;SDS011;10732;51.472;6.466;2023-08-08T11:41:41;4.88;;;2.30;;
21148;SDS011;10732;51.472;6.466;2023-08-08T11:44:07;4.57;;;2.08;;
21148;SDS011;10732;51.472;6.466;2023-08-08T11:46:33;6.35;;;2.38;;
21148;SDS011;10732;51.472;6.466;2023-08-08T11:49:05;6.57;;;2.13;;
21148;SDS011;10732;51.472;6.466;2023-08-08T11:51:32;4.07;;;2.05;;
21148;SDS011;10732;51.472;6.466;2023-08-08T11:53:59;5.60;;;2.30;;
21148;SDS011;10732;51.472;6.466;2023-08-08T11:56:26;9.15;;;2.45;;
21148;SDS011;10732;51.472;6.466;2023-08-08T11:58:54;4.72;;;2.22;;
21148;SDS011;10732;51.472;6.466;2023-08-08T12:01:21;9.70;;;2.63;;
21148;SDS011;10732;51.472;6.466;2023-08-08T12:03:47;7.65;;;2.53;;
21148;SDS011;10732;51.472;6.466;2023-08-08T12:06:14;4.10;;;2.17;;
21148;SDS011;10732;51.472;6.466;2023-08-08T12:08:40;5.53;;;2.58;;
21148;SDS011;10732;51.472;6.466;2023-08-08T12:11:08;5.53;;;2.30;;
21148;SDS011;10732;51.472;6.466;2023-08-08T12:13:34;7.78;;;2.58;;
21148;SDS011;10732;51.472;6.466;2023-08-08T12:16:03;2.95;;;1.95;;
21148;SDS011;10732;51.472;6.466;2023-08-08T12:18:29;6.60;;;2.50;;
21148;SDS011;10732;51.472;6.466;2023-08-08T12:20:55;5.53;;;2.45;;
21148;SDS011;10732;51.472;6.466;2023-08-08T12:23:21;5.80;;;2.40;;
21148;SDS011;10732;51.472;6.466;2023-08-08T12:25:46;7.72;;;2.28;;
21148;SDS011;10732;51.472;6.466;2023-08-08T12:28:12;5.43;;;2.10;;
21148;SDS011;10732;51.472;6.466;2023-08-08T12:30:38;4.35;;;1.70;;
21148;SDS011;10732;51.472;6.466;2023-08-08T12:33:03;3.08;;;1.77;;
21148;SDS011;10732;51.472;6.466;2023-08-08T12:35:29;4.65;;;1.80;;
21148;SDS011;10732;51.472;6.466;2023-08-08T12:37:55;4.18;;;1.98;;
21148;SDS011;10732;51.472;6.466;2023-08-08T12:40:20;5.50;;;2.10;;
21148;SDS011;10732;51.472;6.466;2023-08-08T12:42:46;3.63;;;1.92;;
21148;SDS011;10732;51.472;6.466;2023-08-08T12:45:12;4.13;;;1.90;;
21148;SDS011;10732;51.472;6.466;2023-08-08T12:47:39;6.63;;;2.17;;
21148;SDS011;10732;51.472;6.466;2023-08-08T12:50:04;5.70;;;2.10;;
21148;SDS011;10732;51.472;6.466;2023-08-08T12:52:31;6.10;;;2.22;;
21148;SDS011;10732;51.472;6.466;2023-08-08T12:54:56;5.35;;;2.50;;
21148;SDS011;10732;51.472;6.466;2023-08-08T12:57:22;6.15;;;2.20;;
21148;SDS011;10732;51.472;6.466;2023-08-08T12:59:47;4.28;;;1.98;;
21148;SDS011;10732;51.472;6.466;2023-08-08T13:02:13;5.28;;;2.20;;
21148;SDS011;10732;51.472;6.466;2023-08-08T13:04:39;5.93;;;2.13;;
21148;SDS011;10732;51.472;6.466;2023-08-08T13:07:04;3.67;;;1.95;;
21148;SDS011;10732;51.472;6.466;2023-08-08T13:09:30;6.88;;;1.80;;
21148;SDS011;10732;51.472;6.466;2023-08-08T13:11:55;3.63;;;1.95;;
21148;SDS011;10732;51.472;6.466;2023-08-08T13:14:21;4.45;;;1.70;;
21148;SDS011;10732;51.472;6.466;2023-08-08T13:16:46;4.85;;;1.90;;
21148;SDS011;10732;51.472;6.466;2023-08-08T13:19:12;3.47;;;2.10;;
21148;SDS011;10732;51.472;6.466;2023-08-08T13:21:38;4.63;;;2.00;;
21148;SDS011;10732;51.472;6.466;2023-08-08T13:24:05;4.15;;;2.22;;
21148;SDS011;10732;51.472;6.466;2023-08-08T13:26:31;3.95;;;1.83;;
21148;SDS011;10732;51.472;6.466;2023-08-08T13:28:56;4.68;;;2.00;;
21148;SDS011;10732;51.472;6.466;2023-08-08T13:31:22;5.05;;;1.90;;
21148;SDS011;10732;51.472;6.466;2023-08-08T13:33:47;5.47;;;1.80;;
21148;SDS011;10732;51.472;6.466;2023-08-08T13:36:14;3.17;;;1.90;;
21148;SDS011;10732;51.472;6.466;2023-08-08T13:38:39;5.05;;;1.83;;
21148;SDS011;10732;51.472;6.466;2023-08-08T13:41:05;3.53;;;1.90;;
21148;SDS011;10732;51.472;6.466;2023-08-08T13:43:30;3.63;;;2.00;;
21148;SDS011;10732;51.472;6.466;2023-08-08T13:45:56;3.08;;;1.80;;
21148;SDS011;10732;51.472;6.466;2023-08-08T13:48:21;4.25;;;1.67;;
21148;SDS011;10732;51.472;6.466;2023-08-08T13:50:47;6.40;;;2.08;;
21148;SDS011;10732;51.472;6.466;2023-08-08T13:53:13;3.63;;;1.70;;
21148;SDS011;10732;51.472;6.466;2023-08-08T13:55:38;4.43;;;1.70;;
21148;SDS011;10732;51.472;6.466;2023-08-08T13:58:05;2.78;;;1.50;;
21148;SDS011;10732;51.472;6.466;2023-08-08T14:00:31;4.80;;;1.70;;
21148;SDS011;10732;51.472;6.466;2023-08-08T14:02:57;2.78;;;1.73;;
21148;SDS011;10732;51.472;6.466;2023-08-08T14:05:23;3.92;;;1.70;;
21148;SDS011;10732;51.472;6.466;2023-08-08T14:07:49;4.70;;;1.63;;
21148;SDS011;10732;51.472;6.466;2023-08-08T14:10:15;3.47;;;1.50;;
21148;SDS011;10732;51.472;6.466;2023-08-08T14:12:40;2.95;;;1.38;;
21148;SDS011;10732;51.472;6.466;2023-08-08T14:15:06;3.15;;;1.50;;
21148;SDS011;10732;51.472;6.466;2023-08-08T14:17:34;3.45;;;1.30;;
21148;SDS011;10732;51.472;6.466;2023-08-08T14:20:00;2.47;;;1.30;;
21148;SDS011;10732;51.472;6.466;2023-08-08T14:22:25;1.75;;;1.20;;
21148;SDS011;10732;51.472;6.466;2023-08-08T14:24:51;2.03;;;1.10;;
21148;SDS011;10732;51.472;6.466;2023-08-08T14:27:16;1.92;;;1.13;;
21148;SDS011;10732;51.472;6.466;2023-08-08T14:29:42;1.65;;;1.00;;
21148;SDS011;10732;51.472;6.466;2023-08-08T14:32:08;3.50;;;1.20;;
21148;SDS011;10732;51.472;6.466;2023-08-08T14:34:33;2.72;;;0.95;;
21148;SDS011;10732;51.472;6.466;2023-08-08T14:37:00;3.08;;;1.00;;
21148;SDS011;10732;51.472;6.466;2023-08-08T14:39:26;2.10;;;0.90;;